Terminal Aerodrome Forecast
Issued by NWS

Home | Current Version | Previous Version | Text Only | Print | Product List | Glossary On
Versions: 1 2 3 4 5 6 7 8 9 10 11 12 13 14 15 16 17 18 19 20 21 22 23 24 25 26 27 28 29 30 31 32 33 34 35 36 37 38 39 40 41 42 43 44 45 46 47 48
000
FTAK31 PANC 060539
TAFADL
TAF
PADL 060539Z 0606/0706 28005KT P6SM SCT035
     FM060900 VRB03KT P6SM VCFG FEW008
     FM062000 14010G20KT 3SM -SN SCT015 OVC035
      TEMPO 0620/0624 1SM -RASN OVC008
     FM070100 14012KT 2SM -RA BR OVC008
      AMD LTD TO CLD VIS AND WIND 0607/0616=

USA.gov is the U.S. government's official web portal to all federal, state and local government web resources and services.